createdAt,value
2023-04-17T00:01:00.402Z,16.00
2023-04-17T00:03:28.322Z,18.63
2023-04-17T00:05:56.693Z,14.23
2023-04-17T00:08:24.476Z,17.13
2023-04-17T00:11:00.674Z,18.80
2023-04-17T00:13:34.805Z,18.73
2023-04-17T00:16:02.900Z,18.55
2023-04-17T00:18:30.869Z,17.50
2023-04-17T00:20:58.667Z,17.45
2023-04-17T00:23:27.313Z,17.50
2023-04-17T00:25:56.355Z,23.55
2023-04-17T00:28:24.670Z,21.50
2023-04-17T00:30:52.429Z,22.35
2023-04-17T00:33:20.427Z,23.83
2023-04-17T00:35:48.141Z,19.30
2023-04-17T00:38:15.950Z,18.92
2023-04-17T00:40:45.325Z,19.65
2023-04-17T00:43:14.469Z,21.00
2023-04-17T00:45:42.823Z,21.08
2023-04-17T00:48:13.137Z,20.50
2023-04-17T00:50:40.944Z,17.55
2023-04-17T00:53:08.712Z,19.33
2023-04-17T00:55:38.916Z,23.60
2023-04-17T00:58:07.106Z,22.60
2023-04-17T01:00:36.545Z,22.38
2023-04-17T01:03:05.121Z,21.42
2023-04-17T01:05:35.399Z,20.17
2023-04-17T01:08:03.188Z,19.27
2023-04-17T01:10:30.968Z,24.35
2023-04-17T01:13:05.271Z,19.02
2023-04-17T01:15:33.168Z,19.90
2023-04-17T01:18:03.044Z,23.35
2023-04-17T01:20:31.308Z,20.17
2023-04-17T01:22:59.538Z,20.30
2023-04-17T01:25:29.300Z,21.30
2023-04-17T01:27:57.385Z,21.67
2023-04-17T01:30:25.714Z,19.83
2023-04-17T01:32:55.053Z,23.00
2023-04-17T01:35:23.172Z,20.80
2023-04-17T01:37:51.168Z,21.02
2023-04-17T01:40:19.109Z,21.45
2023-04-17T01:42:48.243Z,21.60
2023-04-17T01:45:16.059Z,19.67
2023-04-17T01:47:43.881Z,18.88
2023-04-17T01:50:12.922Z,18.77
2023-04-17T01:52:40.751Z,20.80
2023-04-17T01:55:09.064Z,19.85
2023-04-17T01:57:36.807Z,19.95
2023-04-17T02:00:08.146Z,25.13
2023-04-17T02:02:36.025Z,18.67
2023-04-17T02:05:04.057Z,20.65
2023-04-17T02:07:31.797Z,21.73
2023-04-17T02:09:59.550Z,22.70
2023-04-17T02:12:27.252Z,22.00
2023-04-17T02:14:55.063Z,20.92
2023-04-17T02:17:24.220Z,22.65
2023-04-17T02:19:52.059Z,21.75
2023-04-17T02:22:19.786Z,22.60
2023-04-17T02:24:47.552Z,20.15
2023-04-17T02:27:15.558Z,23.25
2023-04-17T02:29:43.302Z,18.88
2023-04-17T02:32:11.247Z,21.92
2023-04-17T02:34:40.645Z,24.00
2023-04-17T02:37:08.425Z,24.88
2023-04-17T02:39:36.178Z,22.77
2023-04-17T02:42:04.080Z,21.77
2023-04-17T02:44:31.921Z,20.55
2023-04-17T02:46:59.670Z,22.70
2023-04-17T02:49:27.397Z,20.92
2023-04-17T02:51:56.656Z,22.48
2023-04-17T02:54:24.384Z,21.88
2023-04-17T02:56:53.250Z,20.58
2023-04-17T02:59:20.978Z,19.08
2023-04-17T03:01:48.767Z,20.40
2023-04-17T03:04:16.606Z,21.05
2023-04-17T03:06:44.392Z,22.65
2023-04-17T03:09:14.728Z,22.15
2023-04-17T03:11:42.440Z,24.83
2023-04-17T03:14:10.265Z,21.15
2023-04-17T03:16:37.960Z,21.92
2023-04-17T03:19:05.727Z,27.50
2023-04-17T03:21:33.542Z,21.92
2023-04-17T03:24:01.512Z,24.45
2023-04-17T03:26:30.653Z,28.73
2023-04-17T03:28:58.405Z,22.85
2023-04-17T03:31:27.833Z,21.42
2023-04-17T03:33:55.703Z,25.52
2023-04-17T03:36:23.469Z,27.52
2023-04-17T03:38:51.241Z,26.27
2023-04-17T03:41:18.934Z,27.63
2023-04-17T03:43:48.022Z,23.88
2023-04-17T03:46:16.101Z,25.90
2023-04-17T03:48:43.889Z,22.50
2023-04-17T03:51:11.604Z,21.25
2023-04-17T03:53:39.671Z,24.25
2023-04-17T03:56:07.671Z,24.77
2023-04-17T03:58:35.485Z,24.65
2023-04-17T04:01:04.619Z,33.22
2023-04-17T04:03:32.686Z,23.25
2023-04-17T04:06:00.589Z,25.15
2023-04-17T04:08:28.272Z,26.25
2023-04-17T04:10:56.083Z,23.10
2023-04-17T04:13:23.849Z,24.92
2023-04-17T04:15:51.709Z,23.88
2023-04-17T04:18:20.818Z,29.80
2023-04-17T04:20:48.551Z,28.73
2023-04-17T04:23:16.935Z,25.13
2023-04-17T04:25:44.713Z,28.42
2023-04-17T04:28:13.211Z,26.70
2023-04-17T04:30:40.963Z,24.95
2023-04-17T04:33:09.261Z,29.08
2023-04-17T04:35:38.635Z,24.38
2023-04-17T04:38:06.379Z,30.65
2023-04-17T04:40:35.905Z,24.45
2023-04-17T04:43:04.298Z,25.17
2023-04-17T04:45:32.033Z,25.30
2023-04-17T04:47:59.840Z,26.60
2023-04-17T04:50:27.730Z,29.00
2023-04-17T04:52:56.779Z,28.25
2023-04-17T04:55:24.599Z,23.88
2023-04-17T04:57:54.031Z,28.63
2023-04-17T05:00:22.002Z,28.60
2023-04-17T05:02:49.902Z,26.00
2023-04-17T05:05:17.893Z,29.48
2023-04-17T05:07:45.971Z,23.27
2023-04-17T05:10:15.160Z,25.42
2023-04-17T05:12:44.260Z,24.95
2023-04-17T05:15:12.945Z,26.48
2023-04-17T05:17:41.737Z,26.45
2023-04-17T05:20:12.220Z,31.00
2023-04-17T05:22:39.996Z,30.85
2023-04-17T05:25:08.413Z,32.13
2023-04-17T05:27:37.680Z,27.55
2023-04-17T05:30:06.353Z,26.63
2023-04-17T05:32:35.025Z,28.45
2023-04-17T05:35:02.876Z,26.30
2023-04-17T05:37:30.599Z,27.73
2023-04-17T05:40:00.054Z,27.25
2023-04-17T05:42:27.846Z,28.77
2023-04-17T05:44:56.886Z,26.92
2023-04-17T05:47:25.234Z,26.35
2023-04-17T05:49:57.379Z,27.65
2023-04-17T05:52:25.400Z,30.27
2023-04-17T05:54:53.198Z,25.50
2023-04-17T05:57:20.897Z,30.20
2023-04-17T05:59:49.032Z,31.10
2023-04-17T06:02:18.602Z,28.00
2023-04-17T06:04:47.281Z,28.90
2023-04-17T06:07:15.205Z,26.42
2023-04-17T06:09:43.025Z,29.38
2023-04-17T06:12:15.881Z,30.17
2023-04-17T06:14:44.276Z,27.27
2023-04-17T06:17:12.522Z,30.92
2023-04-17T06:19:41.701Z,27.88
2023-04-17T06:22:09.545Z,28.00
2023-04-17T06:24:37.985Z,27.45
2023-04-17T06:27:05.776Z,27.98
2023-04-17T06:29:33.520Z,28.10
2023-04-17T06:32:01.263Z,23.85
2023-04-17T06:34:29.030Z,30.48
2023-04-17T06:36:58.964Z,25.67
2023-04-17T06:39:27.327Z,27.23
2023-04-17T06:41:56.069Z,26.88
2023-04-17T06:44:23.950Z,27.27
2023-04-17T06:46:53.672Z,23.70
2023-04-17T06:49:21.804Z,22.63
2023-04-17T06:51:49.600Z,28.15
2023-04-17T06:54:18.880Z,30.30
2023-04-17T06:56:46.654Z,29.13
2023-04-17T06:59:14.471Z,24.55
2023-04-17T07:01:42.343Z,29.45
2023-04-17T07:04:10.810Z,25.02
2023-04-17T07:06:39.504Z,22.60
2023-04-17T07:09:07.291Z,20.88
2023-04-17T07:11:36.377Z,21.20
2023-04-17T07:14:04.173Z,18.25
2023-04-17T07:16:32.013Z,21.50
2023-04-17T07:18:59.832Z,21.65
2023-04-17T07:21:28.060Z,20.10
2023-04-17T07:23:55.855Z,21.75
2023-04-17T07:26:23.608Z,20.48
2023-04-17T07:28:52.708Z,19.42
2023-04-17T07:31:22.095Z,22.42
2023-04-17T07:33:50.462Z,21.58
2023-04-17T07:36:18.614Z,16.92
2023-04-17T07:38:46.333Z,19.45
2023-04-17T07:41:14.060Z,18.67
2023-04-17T07:43:42.015Z,16.75
2023-04-17T07:46:11.063Z,15.00
2023-04-17T07:48:38.881Z,15.30
2023-04-17T07:51:07.572Z,16.92
2023-04-17T07:53:37.272Z,13.55
2023-04-17T07:56:06.230Z,14.15
2023-04-17T07:58:35.568Z,14.57
2023-04-17T08:01:06.542Z,17.73
2023-04-17T08:03:41.422Z,12.18
2023-04-17T08:06:11.576Z,11.82
2023-04-17T08:08:41.348Z,13.27
2023-04-17T08:11:10.998Z,13.07
2023-04-17T08:13:40.799Z,10.75
2023-04-17T08:16:11.085Z,11.00
2023-04-17T08:18:42.600Z,11.60
2023-04-17T08:21:12.352Z,13.50
2023-04-17T08:23:42.543Z,11.52
2023-04-17T08:26:12.813Z,12.82
2023-04-17T08:28:42.569Z,8.75
2023-04-17T08:31:11.971Z,8.88
2023-04-17T08:33:43.305Z,12.50
2023-04-17T08:36:12.926Z,8.07
2023-04-17T08:38:43.876Z,10.77
2023-04-17T08:41:20.607Z,9.70
2023-04-17T08:43:52.371Z,10.20
2023-04-17T08:46:24.485Z,9.13
2023-04-17T08:48:55.946Z,9.65
2023-04-17T08:51:28.948Z,10.40
2023-04-17T08:53:58.801Z,9.40
2023-04-17T08:56:30.461Z,8.38
2023-04-17T08:58:58.327Z,8.15
2023-04-17T09:01:26.219Z,8.93
2023-04-17T09:03:56.964Z,8.45
2023-04-17T09:06:24.931Z,8.15
2023-04-17T09:08:58.128Z,6.57
2023-04-17T09:11:26.264Z,6.88
2023-04-17T09:13:54.315Z,8.02
2023-04-17T09:16:24.297Z,7.82
2023-04-17T09:18:52.069Z,8.35
2023-04-17T09:21:21.124Z,5.72
2023-04-17T09:23:51.701Z,6.95
2023-04-17T09:26:22.859Z,6.53
2023-04-17T09:29:07.485Z,5.80
2023-04-17T09:31:36.197Z,6.45
2023-04-17T09:34:05.663Z,6.53
2023-04-17T09:36:38.135Z,6.75
2023-04-17T09:39:17.025Z,5.03
2023-04-17T09:41:44.766Z,6.30
2023-04-17T09:44:13.028Z,5.53
2023-04-17T09:46:45.812Z,5.93
2023-04-17T09:49:18.860Z,5.75
2023-04-17T09:51:49.193Z,5.47
2023-04-17T09:54:18.099Z,7.25
2023-04-17T09:56:49.491Z,6.13
2023-04-17T09:59:17.546Z,5.65
2023-04-17T10:01:46.518Z,6.65
2023-04-17T10:04:14.970Z,9.13
2023-04-17T10:06:44.190Z,6.88
2023-04-17T10:09:13.315Z,10.32
2023-04-17T10:11:45.611Z,11.32
2023-04-17T10:14:25.425Z,10.57
2023-04-17T10:16:53.805Z,8.35
2023-04-17T10:19:28.605Z,8.75
2023-04-17T10:22:30.030Z,11.35
2023-04-17T10:25:21.132Z,10.27
2023-04-17T10:27:58.131Z,6.60
2023-04-17T10:30:46.474Z,8.55
2023-04-17T10:33:30.756Z,10.20
2023-04-17T10:35:58.522Z,7.90
2023-04-17T10:38:36.631Z,7.95
2023-04-17T10:41:09.300Z,6.85
2023-04-17T10:43:41.499Z,9.45
2023-04-17T10:46:12.137Z,7.28
2023-04-17T10:48:42.212Z,7.80
2023-04-17T10:51:41.689Z,9.05
2023-04-17T10:54:13.503Z,6.22
2023-04-17T10:56:45.965Z,9.35
2023-04-17T10:59:15.741Z,10.65
2023-04-17T11:02:00.562Z,8.15
2023-04-17T11:04:31.539Z,8.57
2023-04-17T11:06:59.546Z,7.68
2023-04-17T11:09:29.576Z,7.68
2023-04-17T11:12:02.678Z,7.63
2023-04-17T11:14:30.641Z,6.60
2023-04-17T11:16:58.544Z,6.40
2023-04-17T11:19:27.048Z,9.00
2023-04-17T11:21:57.153Z,7.15
2023-04-17T11:24:25.505Z,9.07
2023-04-17T11:26:53.816Z,7.95
2023-04-17T11:29:24.473Z,17.77
2023-04-17T11:31:53.844Z,17.45
2023-04-17T11:34:21.923Z,16.20
2023-04-17T11:36:50.313Z,9.88
2023-04-17T11:39:19.135Z,7.82
2023-04-17T11:41:47.380Z,5.55
2023-04-17T11:44:15.833Z,5.40
2023-04-17T11:46:50.371Z,6.97
2023-04-17T11:49:24.360Z,4.90
2023-04-17T11:51:52.592Z,4.47
2023-04-17T11:54:27.395Z,3.47
2023-04-17T11:57:02.902Z,4.30
2023-04-17T11:59:32.247Z,4.75
2023-04-17T12:02:02.331Z,3.92
2023-04-17T12:04:33.451Z,4.95
2023-04-17T12:07:01.783Z,8.18
2023-04-17T12:09:31.782Z,9.10
2023-04-17T12:11:59.928Z,9.20
2023-04-17T12:14:27.666Z,18.08
2023-04-17T12:16:55.436Z,12.88
2023-04-17T12:19:26.527Z,9.25
2023-04-17T12:21:54.328Z,7.70
2023-04-17T12:24:24.193Z,5.63
2023-04-17T12:26:52.887Z,7.45
2023-04-17T12:29:29.588Z,7.03
2023-04-17T12:32:04.822Z,5.75
2023-04-17T12:34:34.495Z,5.45
2023-04-17T12:37:02.308Z,7.88
2023-04-17T12:39:30.050Z,4.75
2023-04-17T12:41:58.032Z,3.80
2023-04-17T12:44:25.819Z,3.80
2023-04-17T12:46:54.941Z,3.70
2023-04-17T12:49:23.656Z,4.25
2023-04-17T12:51:52.956Z,4.60
2023-04-17T12:54:20.813Z,6.50
2023-04-17T12:56:48.714Z,5.88
2023-04-17T12:59:16.923Z,5.55
2023-04-17T13:01:44.756Z,7.57
2023-04-17T13:04:13.029Z,4.95
2023-04-17T13:06:41.231Z,6.32
2023-04-17T13:09:10.927Z,4.82
2023-04-17T13:11:38.951Z,5.93
2023-04-17T13:14:07.383Z,4.75
2023-04-17T13:16:35.331Z,4.50
2023-04-17T13:19:03.076Z,4.75
2023-04-17T13:21:30.872Z,6.82
2023-04-17T13:23:58.573Z,5.90
2023-04-17T13:26:27.724Z,4.13
2023-04-17T13:28:55.452Z,5.55
2023-04-17T13:31:24.585Z,7.43
2023-04-17T13:33:52.477Z,7.47
2023-04-17T13:36:20.361Z,9.60
2023-04-17T13:38:48.086Z,5.93
2023-04-17T13:41:15.856Z,4.47
2023-04-17T13:43:45.145Z,5.35
2023-04-17T13:46:16.097Z,5.57
2023-04-17T13:48:44.097Z,4.35
2023-04-17T13:51:11.993Z,4.88
2023-04-17T13:53:39.789Z,4.35
2023-04-17T13:56:07.678Z,3.72
2023-04-17T13:58:35.804Z,5.82
2023-04-17T14:01:04.913Z,5.47
2023-04-17T14:03:32.764Z,4.82
2023-04-17T14:06:00.586Z,4.95
2023-04-17T14:08:28.335Z,3.72
2023-04-17T14:10:56.100Z,5.32
2023-04-17T14:13:23.851Z,5.63
2023-04-17T14:15:53.514Z,3.38
2023-04-17T14:18:24.579Z,3.38
2023-04-17T14:20:53.910Z,4.68
2023-04-17T14:23:21.681Z,3.80
2023-04-17T14:25:49.476Z,5.03
2023-04-17T14:28:18.419Z,5.05
2023-04-17T14:30:46.259Z,6.13
2023-04-17T14:33:14.183Z,3.20
2023-04-17T14:35:43.339Z,3.33
2023-04-17T14:38:11.194Z,2.65
2023-04-17T14:40:38.924Z,2.97
2023-04-17T14:43:07.038Z,2.30
2023-04-17T14:45:36.568Z,4.32
2023-04-17T14:48:04.647Z,2.92
2023-04-17T14:50:32.435Z,1.67
2023-04-17T14:53:01.628Z,2.85
2023-04-17T14:55:29.974Z,3.78
2023-04-17T14:57:57.989Z,1.58
2023-04-17T15:00:25.810Z,3.10
2023-04-17T15:02:53.674Z,1.30
2023-04-17T15:05:22.392Z,3.53
2023-04-17T15:07:50.262Z,2.20
2023-04-17T15:10:19.316Z,1.27
2023-04-17T15:12:47.110Z,2.15
2023-04-17T15:15:14.970Z,1.90
2023-04-17T15:17:42.832Z,1.70
2023-04-17T15:20:10.908Z,4.85
2023-04-17T15:22:38.645Z,1.77
2023-04-17T15:25:07.066Z,2.38
2023-04-17T15:27:36.167Z,2.22
2023-04-17T15:30:06.516Z,10.75
2023-04-17T15:32:34.274Z,5.90
2023-04-17T15:35:01.969Z,4.00
2023-04-17T15:37:29.730Z,3.50
2023-04-17T15:39:57.549Z,4.55
2023-04-17T15:42:27.021Z,3.33
2023-04-17T15:44:56.137Z,2.83
2023-04-17T15:47:23.944Z,2.53
2023-04-17T15:49:51.664Z,3.00
2023-04-17T15:52:19.441Z,1.10
2023-04-17T15:54:47.228Z,4.43
2023-04-17T15:57:15.005Z,1.75
2023-04-17T15:59:42.790Z,2.78
2023-04-17T16:02:13.750Z,1.50
2023-04-17T16:04:43.431Z,2.15
2023-04-17T16:07:13.051Z,1.92
2023-04-17T16:09:41.325Z,2.08
2023-04-17T16:12:10.476Z,2.22
2023-04-17T16:14:38.816Z,2.72
2023-04-17T16:17:06.791Z,1.63
2023-04-17T16:19:36.259Z,2.50
2023-04-17T16:22:04.059Z,3.28
2023-04-17T16:24:31.847Z,2.58
2023-04-17T16:27:01.408Z,1.88
2023-04-17T16:29:29.277Z,1.95
2023-04-17T16:31:57.399Z,1.20
2023-04-17T16:34:25.183Z,1.05
2023-04-17T16:36:54.226Z,1.00
2023-04-17T16:39:21.979Z,5.18
2023-04-17T16:41:52.044Z,1.35
2023-04-17T16:44:19.785Z,1.40
2023-04-17T16:47:09.540Z,1.30
2023-04-17T16:49:35.279Z,1.95
2023-04-17T16:52:04.470Z,1.20
2023-04-17T16:54:32.465Z,1.52
2023-04-17T16:57:00.602Z,1.50
2023-04-17T16:59:28.340Z,1.70
2023-04-17T17:01:56.259Z,2.13
2023-04-17T17:04:24.045Z,1.15
2023-04-17T17:06:51.846Z,4.07
2023-04-17T17:09:21.041Z,2.13
2023-04-17T17:11:48.918Z,1.38
2023-04-17T17:14:16.953Z,1.50
2023-04-17T17:16:44.755Z,1.27
2023-04-17T17:19:12.739Z,1.92
2023-04-17T17:21:40.612Z,1.52
2023-04-17T17:24:08.488Z,1.58
2023-04-17T17:26:37.695Z,2.25
2023-04-17T17:29:05.637Z,8.65
2023-04-17T17:31:34.498Z,6.00
2023-04-17T17:34:16.730Z,2.60
2023-04-17T17:36:50.343Z,4.20
2023-04-17T17:39:18.107Z,3.70
2023-04-17T17:41:47.608Z,4.25
2023-04-17T17:44:15.654Z,2.75
2023-04-17T17:46:43.629Z,2.58
2023-04-17T17:49:11.665Z,6.05
2023-04-17T17:51:39.413Z,3.15
2023-04-17T17:54:07.798Z,4.35
2023-04-17T17:56:35.829Z,2.90
2023-04-17T17:59:04.980Z,4.88
2023-04-17T18:01:33.130Z,8.70
2023-04-17T18:04:01.077Z,3.17
2023-04-17T18:06:29.017Z,2.78
2023-04-17T18:08:58.550Z,3.15
2023-04-17T18:11:27.101Z,7.25
2023-04-17T18:13:54.781Z,6.72
2023-04-17T18:16:24.826Z,12.32
2023-04-17T18:18:52.765Z,11.50
2023-04-17T18:21:20.468Z,9.18
2023-04-17T18:23:48.306Z,3.58
2023-04-17T18:26:16.191Z,4.57
2023-04-17T18:28:43.945Z,9.57
2023-04-17T18:31:12.413Z,6.57
2023-04-17T18:33:41.560Z,7.55
2023-04-17T18:36:09.901Z,6.20
2023-04-17T18:38:37.625Z,6.63
2023-04-17T18:41:05.398Z,5.90
2023-04-17T18:43:33.185Z,4.57
2023-04-17T18:46:04.367Z,6.55
2023-04-17T18:48:32.081Z,7.63
2023-04-17T18:51:09.469Z,3.85
2023-04-17T18:53:37.307Z,4.13
2023-04-17T18:56:06.507Z,5.55
2023-04-17T18:58:34.317Z,6.65
2023-04-17T19:01:02.199Z,3.20
2023-04-17T19:03:30.142Z,3.55
2023-04-17T19:05:57.914Z,7.78
2023-04-17T19:08:27.050Z,6.78
2023-04-17T19:10:55.083Z,7.43
2023-04-17T19:13:22.836Z,6.45
2023-04-17T19:15:50.743Z,4.43
2023-04-17T19:18:18.641Z,6.63
2023-04-17T19:20:47.776Z,7.38
2023-04-17T19:23:15.759Z,6.80
2023-04-17T19:25:44.910Z,4.93
2023-04-17T19:28:13.315Z,4.30
2023-04-17T19:30:41.152Z,5.47
2023-04-17T19:33:09.296Z,6.93
2023-04-17T19:35:37.078Z,5.38
2023-04-17T19:38:04.860Z,5.40
2023-04-17T19:40:32.591Z,5.20
2023-04-17T19:43:03.334Z,6.03
2023-04-17T19:45:33.029Z,4.57
2023-04-17T19:48:01.269Z,7.30
2023-04-17T19:50:30.549Z,6.00
2023-04-17T19:52:59.144Z,4.32
2023-04-17T19:55:26.919Z,4.65
2023-04-17T19:57:56.840Z,6.10
2023-04-17T20:00:26.763Z,5.40
2023-04-17T20:02:54.621Z,5.47
2023-04-17T20:05:22.559Z,8.25
2023-04-17T20:07:50.499Z,8.50
2023-04-17T20:10:18.798Z,5.35
2023-04-17T20:12:47.003Z,6.70
2023-04-17T20:15:19.646Z,6.50
2023-04-17T20:17:48.917Z,6.28
2023-04-17T20:20:16.663Z,7.40
2023-04-17T20:22:44.569Z,5.32
2023-04-17T20:25:12.419Z,6.63
2023-04-17T20:27:40.250Z,6.38
2023-04-17T20:30:09.158Z,5.30
2023-04-17T20:32:36.988Z,5.20
2023-04-17T20:35:06.918Z,6.93
2023-04-17T20:37:34.785Z,6.88
2023-04-17T20:40:02.619Z,5.40
2023-04-17T20:42:30.472Z,6.65
2023-04-17T20:44:59.522Z,6.45
2023-04-17T20:47:27.290Z,8.18
2023-04-17T20:49:55.116Z,7.82
2023-04-17T20:52:24.276Z,4.40
2023-04-17T20:54:52.081Z,5.35
2023-04-17T20:57:19.889Z,9.30
2023-04-17T20:59:47.733Z,7.00
2023-04-17T21:02:16.234Z,9.68
2023-04-17T21:04:44.978Z,5.72
2023-04-17T21:07:12.855Z,6.35
2023-04-17T21:09:41.966Z,7.05
2023-04-17T21:12:10.142Z,6.70
2023-04-17T21:14:38.072Z,4.93
2023-04-17T21:17:05.863Z,5.78
2023-04-17T21:19:36.614Z,6.90
2023-04-17T21:22:04.606Z,7.40
2023-04-17T21:24:32.407Z,6.90
2023-04-17T21:27:02.405Z,10.13
2023-04-17T21:29:30.346Z,8.98
2023-04-17T21:31:58.227Z,6.85
2023-04-17T21:34:26.154Z,9.57
2023-04-17T21:36:54.372Z,7.10
2023-04-17T21:39:22.206Z,9.75
2023-04-17T21:41:49.916Z,10.02
2023-04-17T21:44:19.002Z,8.45
2023-04-17T21:46:46.849Z,5.68
2023-04-17T21:49:14.586Z,7.30
2023-04-17T21:51:42.340Z,8.50
2023-04-17T21:54:10.621Z,11.25
2023-04-17T21:56:38.481Z,8.13
2023-04-17T21:59:06.266Z,7.07
2023-04-17T22:01:35.490Z,11.60
2023-04-17T22:04:03.371Z,8.30
2023-04-17T22:06:31.165Z,10.27
2023-04-17T22:08:58.903Z,6.32
2023-04-17T22:11:26.639Z,7.45
2023-04-17T22:13:54.349Z,6.70
2023-04-17T22:16:22.078Z,6.38
2023-04-17T22:18:51.214Z,8.75
2023-04-17T22:21:19.010Z,9.95
2023-04-17T22:23:46.812Z,13.63
2023-04-17T22:26:14.597Z,8.05
2023-04-17T22:28:42.348Z,8.32
2023-04-17T22:31:10.862Z,10.65
2023-04-17T22:33:38.631Z,8.20
2023-04-17T22:36:08.248Z,9.73
2023-04-17T22:38:36.108Z,8.30
2023-04-17T22:41:04.236Z,9.50
2023-04-17T22:43:32.139Z,9.30
2023-04-17T22:45:59.900Z,9.55
2023-04-17T22:48:28.275Z,11.07
2023-04-17T22:50:56.630Z,11.88
2023-04-17T22:53:26.055Z,8.40
2023-04-17T22:56:03.232Z,13.55
2023-04-17T22:58:33.163Z,10.73
2023-04-17T23:01:01.347Z,11.60
2023-04-17T23:03:29.084Z,10.15
2023-04-17T23:05:57.345Z,11.45
2023-04-17T23:08:26.410Z,11.93
2023-04-17T23:10:59.594Z,9.68
2023-04-17T23:13:27.699Z,10.23
2023-04-17T23:15:55.630Z,11.02
2023-04-17T23:18:23.459Z,8.95
2023-04-17T23:20:51.352Z,9.80
2023-04-17T23:23:19.298Z,9.25
2023-04-17T23:25:48.372Z,10.50
2023-04-17T23:28:16.122Z,11.05
2023-04-17T23:30:43.880Z,11.40
2023-04-17T23:33:11.652Z,10.20
2023-04-17T23:35:39.380Z,10.05
2023-04-17T23:38:07.111Z,11.15
2023-04-17T23:40:36.049Z,10.48
2023-04-17T23:43:05.211Z,9.40
2023-04-17T23:45:32.894Z,9.27
2023-04-17T23:48:00.743Z,7.97
2023-04-17T23:50:28.565Z,11.05
2023-04-17T23:52:56.248Z,12.57
2023-04-17T23:55:25.715Z,12.07
2023-04-17T23:57:53.701Z,9.52
